Time;durP1;ratioP1;P1;durP2;ratioP2;P2;SDS_P1;SDS_P2;PMS_P1;PMS_P2;Temp;Humidity;BMP_temperature;BMP_pressure;BME280_temperature;BME280_humidity;BME280_pressure;Samples;Min_cycle;Max_cycle;Signal;HPM_P1;HPM_P2
2021/08/21 00:02:17;;;;;;;4.38;3.50;;;;;;;17.26;81.77;100673.53;4904391;29;20055;-79
2021/08/21 00:04:44;;;;;;;6.07;3.28;;;;;;;17.22;81.89;100664.00;4899342;29;20048;-79
2021/08/21 00:07:11;;;;;;;4.38;2.95;;;;;;;17.20;81.94;100664.09;4908818;29;20380;-78
2021/08/21 00:09:37;;;;;;;4.50;3.17;;;;;;;17.19;81.87;100670.41;4898780;29;20107;-78
2021/08/21 00:12:05;;;;;;;4.18;3.38;;;;;;;17.15;81.91;100669.78;4913879;29;20116;-78
2021/08/21 00:14:33;;;;;;;3.90;3.22;;;;;;;17.14;81.97;100681.47;4913419;29;20108;-78
2021/08/21 00:17:00;;;;;;;4.85;3.17;;;;;;;17.12;82.27;100674.50;4906967;29;20135;-79
2021/08/21 00:19:28;;;;;;;3.85;3.05;;;;;;;17.11;82.16;100673.63;4903830;29;20059;-79
2021/08/21 00:21:54;;;;;;;4.13;2.60;;;;;;;17.14;82.14;100677.91;4900548;29;20049;-79
2021/08/21 00:24:21;;;;;;;4.80;3.00;;;;;;;17.14;82.37;100667.22;4899213;29;20066;-79
2021/08/21 00:26:48;;;;;;;4.70;3.22;;;;;;;17.14;82.20;100665.41;4903157;29;20404;-79
2021/08/21 00:29:14;;;;;;;3.90;3.05;;;;;;;17.11;82.25;100678.13;4890869;29;20058;-79
2021/08/21 00:31:42;;;;;;;3.70;3.00;;;;;;;17.06;82.46;100680.25;4908282;29;20148;-80
2021/08/21 00:34:08;;;;;;;3.10;2.80;;;;;;;17.03;82.71;100672.44;4904311;29;20062;-80
2021/08/21 00:36:35;;;;;;;5.93;3.10;;;;;;;16.95;82.68;100669.44;4899463;29;20492;-80
2021/08/21 00:39:03;;;;;;;2.70;2.45;;;;;;;16.90;83.07;100675.09;4904861;29;20053;-79
2021/08/21 00:41:33;;;;;;;5.40;3.30;;;;;;;16.85;83.42;100677.22;4911780;29;20120;-80
2021/08/21 00:44:05;;;;;;;6.68;3.42;;;;;;;16.80;83.49;100672.22;4915984;29;20108;-80
2021/08/21 00:46:32;;;;;;;5.50;3.42;;;;;;;16.78;83.75;100673.28;4904739;29;20033;-80
2021/08/21 00:49:00;;;;;;;4.20;3.20;;;;;;;16.75;84.04;100671.66;4898148;29;20115;-80
2021/08/21 00:51:27;;;;;;;5.00;3.35;;;;;;;16.74;84.37;100674.44;4899049;29;20067;-79
2021/08/21 00:53:54;;;;;;;6.22;3.50;;;;;;;16.72;84.04;100677.22;4897941;29;20132;-79
2021/08/21 00:56:23;;;;;;;6.03;3.70;;;;;;;16.70;84.56;100672.94;4898492;29;20096;-80
2021/08/21 00:58:50;;;;;;;5.28;3.60;;;;;;;16.63;84.60;100677.00;4899490;29;20055;-80
2021/08/21 01:01:16;;;;;;;5.72;3.65;;;;;;;16.55;85.26;100679.28;4901104;29;20051;-79
2021/08/21 01:03:43;;;;;;;5.65;3.92;;;;;;;16.54;85.38;100680.25;4897195;29;20049;-80
2021/08/21 01:06:10;;;;;;;5.82;3.70;;;;;;;16.54;85.56;100677.56;4898274;29;20052;-80
2021/08/21 01:08:36;;;;;;;5.72;3.47;;;;;;;16.56;85.34;100672.97;4895500;29;20088;-80
2021/08/21 01:11:03;;;;;;;5.35;3.83;;;;;;;16.60;85.66;100671.81;4880365;29;20058;-80
2021/08/21 01:13:32;;;;;;;7.30;4.00;;;;;;;16.62;85.45;100667.22;4901444;29;20131;-80
2021/08/21 01:15:59;;;;;;;6.50;3.75;;;;;;;16.63;85.31;100667.16;4903064;29;20074;-80
2021/08/21 01:18:26;;;;;;;4.18;3.45;;;;;;;16.64;85.20;100668.03;4904980;29;20104;-80
2021/08/21 01:20:53;;;;;;;4.80;4.20;;;;;;;16.65;85.52;100664.38;4899830;29;20068;-80
2021/08/21 01:23:20;;;;;;;5.35;3.78;;;;;;;16.65;85.17;100667.06;4900058;29;20116;-80
2021/08/21 01:25:47;;;;;;;5.00;4.00;;;;;;;16.63;85.18;100666.31;4898408;29;20051;-80
2021/08/21 01:28:13;;;;;;;5.15;4.22;;;;;;;16.58;85.22;100673.72;4897547;29;20052;-80
2021/08/21 01:30:42;;;;;;;6.57;4.28;;;;;;;16.55;85.50;100668.59;4900493;29;20060;-80
2021/08/21 01:33:11;;;;;;;5.78;4.60;;;;;;;16.50;85.44;100666.25;4901260;29;20049;-79
2021/08/21 01:35:38;;;;;;;6.25;4.65;;;;;;;16.43;86.02;100660.44;4895789;29;20062;-80
2021/08/21 01:38:05;;;;;;;5.85;4.20;;;;;;;16.46;86.51;100667.41;4898936;29;20143;-80
2021/08/21 01:40:32;;;;;;;6.75;4.53;;;;;;;16.47;86.31;100667.31;4901852;29;20048;-80
2021/08/21 01:42:59;;;;;;;7.05;4.63;;;;;;;16.54;86.16;100666.88;4902302;29;20052;-79
2021/08/21 01:45:25;;;;;;;6.57;4.18;;;;;;;16.57;86.09;100662.19;4900486;29;20113;-80
2021/08/21 01:47:52;;;;;;;4.90;4.25;;;;;;;16.60;85.74;100666.47;4897333;29;22743;-80
2021/08/21 01:50:20;;;;;;;4.75;4.18;;;;;;;16.61;85.63;100665.50;4894540;29;20065;-80
2021/08/21 01:52:52;;;;;;;6.43;4.80;;;;;;;16.58;85.43;100655.88;4897248;29;20661;-80
2021/08/21 01:55:21;;;;;;;4.70;4.20;;;;;;;16.57;85.38;100667.53;4897379;29;20053;-80
2021/08/21 01:57:48;;;;;;;5.07;4.25;;;;;;;16.55;85.52;100661.41;4899999;29;20086;-80
2021/08/21 02:00:16;;;;;;;5.68;4.72;;;;;;;16.55;86.03;100663.25;4898545;29;20614;-80
2021/08/21 02:02:43;;;;;;;5.35;4.75;;;;;;;16.54;86.22;100661.53;4881271;29;20065;-80
2021/08/21 02:05:10;;;;;;;6.15;4.63;;;;;;;16.54;86.27;100651.69;4903385;29;20052;-79
2021/08/21 02:07:37;;;;;;;6.15;4.80;;;;;;;16.61;85.95;100657.50;4896139;29;20057;-79
2021/08/21 02:10:05;;;;;;;6.70;4.97;;;;;;;16.60;85.89;100658.44;4900080;29;20136;-79
2021/08/21 02:12:33;;;;;;;5.07;4.57;;;;;;;16.62;85.44;100661.88;4898354;29;20128;-79
2021/08/21 02:15:06;;;;;;;6.10;4.70;;;;;;;16.58;85.37;100668.38;4896731;29;20048;-79
2021/08/21 02:17:33;;;;;;;10.02;5.30;;;;;;;16.53;85.43;100665.19;4897379;29;20056;-79
2021/08/21 02:20:00;;;;;;;5.72;4.82;;;;;;;16.44;85.66;100672.84;4895586;29;20058;-79
2021/08/21 02:22:27;;;;;;;5.75;4.85;;;;;;;16.41;86.06;100667.69;4894359;29;20891;-79
2021/08/21 02:24:55;;;;;;;5.80;5.03;;;;;;;16.38;86.39;100670.56;4908463;29;20111;-79
2021/08/21 02:27:24;;;;;;;5.72;4.78;;;;;;;16.40;86.31;100665.97;4912416;29;20183;-79
2021/08/21 02:29:53;;;;;;;5.53;4.72;;;;;;;16.41;86.49;100661.50;4910872;29;20497;-79
2021/08/21 02:32:19;;;;;;;5.45;4.70;;;;;;;16.44;86.80;100667.50;4906580;29;20052;-79
2021/08/21 02:34:46;;;;;;;5.57;4.70;;;;;;;16.48;86.45;100662.81;4916861;29;20047;-79
2021/08/21 02:37:13;;;;;;;6.57;4.53;;;;;;;16.52;86.62;100663.47;4912142;29;20198;-79
2021/08/21 02:39:42;;;;;;;6.75;4.70;;;;;;;16.55;86.45;100665.91;4911064;29;20057;-79
2021/08/21 02:42:08;;;;;;;5.50;4.45;;;;;;;16.56;86.65;100662.28;4911308;29;20079;-79
2021/08/21 02:44:35;;;;;;;5.03;4.18;;;;;;;16.58;86.10;100655.03;4914840;29;20108;-79
2021/08/21 02:47:03;;;;;;;8.75;4.60;;;;;;;16.58;85.82;100657.69;4914198;29;20104;-79
2021/08/21 02:49:30;;;;;;;5.72;4.65;;;;;;;16.50;86.46;100650.22;4911154;29;20052;-79
2021/08/21 02:51:57;;;;;;;5.53;4.50;;;;;;;16.40;86.69;100641.94;4899936;29;20045;-79
2021/08/21 02:54:23;;;;;;;6.80;4.50;;;;;;;16.39;86.95;100647.38;4900703;29;20051;-79
2021/08/21 02:56:50;;;;;;;5.30;4.38;;;;;;;16.31;87.77;100649.72;4898430;29;20056;-79
2021/08/21 02:59:16;;;;;;;4.65;4.20;;;;;;;16.27;88.04;100649.06;4899576;29;20052;-79
2021/08/21 03:01:43;;;;;;;7.22;4.68;;;;;;;16.22;88.12;100650.31;4894156;29;20059;-79
2021/08/21 03:04:10;;;;;;;6.15;4.68;;;;;;;16.20;88.17;100642.44;4897428;29;20045;-79
2021/08/21 03:06:36;;;;;;;6.25;4.82;;;;;;;16.16;88.87;100643.56;4899318;29;20049;-79
2021/08/21 03:09:03;;;;;;;8.05;4.70;;;;;;;16.15;89.23;100652.56;4898175;29;20413;-79
2021/08/21 03:11:30;;;;;;;6.93;4.65;;;;;;;16.11;88.84;100646.53;4895972;29;20071;-79
2021/08/21 03:13:57;;;;;;;6.45;4.93;;;;;;;16.10;89.30;100646.66;4898460;29;20050;-79
2021/08/21 03:16:24;;;;;;;5.65;4.82;;;;;;;16.10;89.23;100642.16;4898415;29;20079;-79
2021/08/21 03:18:51;;;;;;;7.40;4.95;;;;;;;16.09;89.62;100644.94;4899139;29;20059;-79
2021/08/21 03:21:19;;;;;;;6.57;5.00;;;;;;;16.09;89.48;100639.59;4904703;29;20053;-79
2021/08/21 03:23:45;;;;;;;6.25;4.78;;;;;;;16.02;89.64;100636.47;4902436;29;20052;-79
2021/08/21 03:26:12;;;;;;;7.47;5.22;;;;;;;15.92;90.09;100632.66;4904344;29;20055;-79
2021/08/21 03:28:39;;;;;;;6.78;5.07;;;;;;;15.94;90.12;100643.25;4905197;29;20055;-78
2021/08/21 03:31:06;;;;;;;9.70;5.32;;;;;;;15.91;90.31;100646.97;4904364;29;20049;-79
2021/08/21 03:33:33;;;;;;;6.85;4.93;;;;;;;15.89;90.57;100653.41;4904903;29;20093;-79
2021/08/21 03:35:59;;;;;;;7.65;5.13;;;;;;;15.84;90.84;100651.03;4890875;29;20063;-79
2021/08/21 03:38:26;;;;;;;6.13;5.15;;;;;;;15.79;90.91;100653.13;4907168;29;20124;-78
2021/08/21 03:40:53;;;;;;;8.65;5.40;;;;;;;15.77;91.48;100647.88;4901233;29;20048;-79
2021/08/21 03:43:19;;;;;;;7.07;4.97;;;;;;;15.75;91.37;100651.59;4902835;29;20401;-79
2021/08/21 03:45:46;;;;;;;6.82;5.13;;;;;;;15.73;92.02;100657.06;4907597;29;20048;-79
2021/08/21 03:48:13;;;;;;;5.95;4.90;;;;;;;15.72;92.16;100646.47;4902630;29;20058;-79
2021/08/21 03:50:39;;;;;;;5.90;4.85;;;;;;;15.71;92.15;100645.63;4912738;29;20072;-79
2021/08/21 03:53:06;;;;;;;7.10;4.72;;;;;;;15.68;91.63;100643.16;4910394;29;20146;-79
2021/08/21 03:55:33;;;;;;;6.30;4.85;;;;;;;15.71;92.05;100652.78;4888802;29;20060;-79
2021/08/21 03:58:00;;;;;;;6.50;4.85;;;;;;;15.73;92.13;100651.72;4888092;29;20617;-79
2021/08/21 04:00:27;;;;;;;5.70;4.45;;;;;;;15.71;91.40;100650.97;4913055;29;20116;-79
2021/08/21 04:02:55;;;;;;;7.63;4.63;;;;;;;15.66;91.38;100649.53;4919164;29;20049;-79
2021/08/21 04:05:24;;;;;;;6.85;4.63;;;;;;;15.69;91.93;100647.53;4921193;29;20087;-79
2021/08/21 04:07:50;;;;;;;6.07;4.47;;;;;;;15.69;91.96;100650.19;4916342;29;20126;-79
2021/08/21 04:10:18;;;;;;;5.72;4.85;;;;;;;15.70;91.51;100653.72;4917873;29;20100;-79
2021/08/21 04:12:44;;;;;;;5.22;4.72;;;;;;;15.64;91.63;100652.31;4892413;29;20068;-78
2021/08/21 04:15:11;;;;;;;7.72;5.18;;;;;;;15.62;91.56;100648.00;4915374;29;20088;-79
2021/08/21 04:17:38;;;;;;;7.78;5.18;;;;;;;15.57;91.53;100651.00;4905318;29;20059;-79
2021/08/21 04:20:05;;;;;;;7.22;5.35;;;;;;;15.60;92.09;100655.25;4900986;29;20056;-79
2021/08/21 04:22:32;;;;;;;6.43;5.10;;;;;;;15.59;91.76;100653.53;4903213;29;20076;-79
2021/08/21 04:24:58;;;;;;;6.18;5.20;;;;;;;15.58;91.69;100649.19;4906112;29;20135;-79
2021/08/21 04:27:25;;;;;;;6.93;4.97;;;;;;;15.60;91.80;100650.78;4911905;29;20059;-79
2021/08/21 04:29:51;;;;;;;5.40;4.82;;;;;;;15.58;91.70;100652.72;4913216;29;20042;-79
2021/08/21 04:32:18;;;;;;;7.47;5.05;;;;;;;15.57;91.68;100653.66;4916233;29;20044;-79
2021/08/21 04:34:45;;;;;;;6.45;5.32;;;;;;;15.56;91.74;100653.75;4917393;29;20104;-79
2021/08/21 04:37:11;;;;;;;6.70;5.50;;;;;;;15.54;91.86;100651.16;4873091;29;1332539;-79
2021/08/21 04:39:38;;;;;;;8.20;5.68;;;;;;;15.52;92.10;100644.19;4920006;29;20047;-79
2021/08/21 04:42:05;;;;;;;6.95;5.18;;;;;;;15.53;92.24;100653.91;4920472;29;20112;-79
2021/08/21 04:44:31;;;;;;;8.75;4.97;;;;;;;15.56;92.20;100662.63;4916177;29;20047;-79
2021/08/21 04:46:59;;;;;;;6.53;5.20;;;;;;;15.61;92.27;100657.81;4902633;29;20059;-79
2021/08/21 04:49:26;;;;;;;9.05;5.90;;;;;;;15.66;91.99;100657.53;4904106;29;20127;-79
2021/08/21 04:51:56;;;;;;;6.63;5.18;;;;;;;15.68;91.81;100656.50;4905826;29;20051;-79
2021/08/21 04:54:23;;;;;;;7.38;5.63;;;;;;;15.73;91.37;100659.75;4907492;29;20053;-79
2021/08/21 04:56:49;;;;;;;10.02;5.38;;;;;;;15.80;91.11;100670.88;4901675;29;20055;-79
2021/08/21 04:59:16;;;;;;;7.68;6.10;;;;;;;15.82;91.01;100663.63;4895994;29;20976;-79
2021/08/21 05:01:43;;;;;;;7.47;5.68;;;;;;;15.86;90.44;100672.28;4901709;29;20049;-79
2021/08/21 05:04:10;;;;;;;6.95;5.35;;;;;;;15.87;90.77;100676.69;4904660;29;20052;-79
2021/08/21 05:06:40;;;;;;;6.55;5.18;;;;;;;15.96;90.99;100676.06;4902698;29;20064;-79
2021/08/21 05:09:06;;;;;;;7.75;5.00;;;;;;;16.03;90.45;100672.91;4899594;29;20087;-79
2021/08/21 05:11:33;;;;;;;7.47;5.03;;;;;;;16.11;89.45;100677.75;4901528;29;20540;-79
2021/08/21 05:14:01;;;;;;;5.50;5.00;;;;;;;16.15;89.21;100679.28;4906478;29;20116;-79
2021/08/21 05:16:28;;;;;;;8.32;5.50;;;;;;;16.21;89.28;100680.69;4902321;29;20056;-79
2021/08/21 05:19:02;;;;;;;6.28;5.10;;;;;;;16.27;88.32;100680.28;4905274;29;20067;-79
2021/08/21 05:21:34;;;;;;;8.00;4.88;;;;;;;16.30;88.25;100680.94;4899535;29;20568;-79
2021/08/21 05:24:01;;;;;;;8.23;4.90;;;;;;;16.34;88.08;100682.44;4886548;29;20049;-78
2021/08/21 05:26:28;;;;;;;6.78;4.55;;;;;;;16.34;87.69;100686.94;4899680;29;21355;-79
2021/08/21 05:28:55;;;;;;;7.80;4.07;;;;;;;16.37;88.05;100678.72;4899114;29;20029;-79
2021/08/21 05:31:23;;;;;;;5.32;4.32;;;;;;;16.44;87.96;100680.88;4901518;29;20044;-79
2021/08/21 05:33:50;;;;;;;5.90;4.40;;;;;;;16.49;87.80;100676.09;4912807;29;20060;-78
2021/08/21 05:36:17;;;;;;;6.18;4.20;;;;;;;16.59;87.55;100681.66;4909516;29;20036;-78
2021/08/21 05:38:43;;;;;;;5.90;4.78;;;;;;;16.63;86.80;100674.31;4915855;29;20081;-79
2021/08/21 05:41:10;;;;;;;5.53;4.32;;;;;;;16.67;86.91;100671.34;4911785;29;20255;-79
2021/08/21 05:43:38;;;;;;;6.65;4.90;;;;;;;16.75;86.21;100676.16;4902110;29;20056;-79
2021/08/21 05:46:04;;;;;;;5.80;4.70;;;;;;;16.79;86.26;100675.00;4900845;29;20045;-79
2021/08/21 05:48:31;;;;;;;6.25;4.78;;;;;;;16.82;85.04;100674.78;4908127;29;20028;-78
2021/08/21 05:50:57;;;;;;;6.80;4.75;;;;;;;16.83;85.39;100681.84;4913719;29;20092;-77
2021/08/21 05:53:24;;;;;;;5.53;4.60;;;;;;;16.86;85.63;100678.94;4914623;29;20107;-78
2021/08/21 05:55:51;;;;;;;5.68;4.30;;;;;;;16.94;85.15;100686.47;4913508;29;20068;-80
2021/08/21 05:58:19;;;;;;;9.20;4.93;;;;;;;16.95;84.01;100682.81;4906837;29;20373;-79
2021/08/21 06:00:46;;;;;;;6.75;4.68;;;;;;;16.95;84.61;100677.47;4899443;29;20462;-78
2021/08/21 06:03:15;;;;;;;7.43;4.90;;;;;;;16.92;84.48;100675.88;4902382;29;20048;-80
2021/08/21 06:05:42;;;;;;;6.22;4.70;;;;;;;16.96;84.48;100684.53;4883459;29;20053;-81
2021/08/21 06:08:10;;;;;;;5.53;4.65;;;;;;;17.00;84.22;100686.88;4885525;29;20052;-80
2021/08/21 06:10:38;;;;;;;5.63;4.60;;;;;;;17.05;83.89;100689.25;4896328;29;20036;-80
2021/08/21 06:13:06;;;;;;;6.47;4.82;;;;;;;17.02;84.06;100690.31;4896370;29;20060;-80
2021/08/21 06:15:32;;;;;;;6.85;4.55;;;;;;;17.05;84.49;100697.28;4894147;29;20332;-79
2021/08/21 06:17:59;;;;;;;7.22;4.30;;;;;;;17.10;84.35;100687.97;4897918;29;20413;-80
2021/08/21 06:20:26;;;;;;;8.63;4.75;;;;;;;17.23;84.06;100689.78;4894696;29;20584;-80
2021/08/21 06:22:52;;;;;;;5.90;4.45;;;;;;;17.31;83.46;100690.97;4899962;29;20434;-78
2021/08/21 06:25:19;;;;;;;5.07;4.20;;;;;;;17.46;82.38;100687.22;4896560;29;20059;-80
2021/08/21 06:27:46;;;;;;;5.85;3.83;;;;;;;17.70;82.53;100689.13;4897193;29;20063;-80
2021/08/21 06:30:14;;;;;;;4.53;3.85;;;;;;;17.94;80.56;100690.06;4896467;29;20028;-80
2021/08/21 06:32:41;;;;;;;6.90;4.03;;;;;;;18.11;79.51;100681.59;4894408;29;20052;-80
2021/08/21 06:35:08;;;;;;;5.78;3.88;;;;;;;18.38;79.63;100683.22;4897098;29;20053;-80
2021/08/21 06:37:34;;;;;;;7.20;4.22;;;;;;;18.56;77.96;100679.16;4897910;29;20074;-80
2021/08/21 06:40:01;;;;;;;6.50;3.90;;;;;;;18.76;76.27;100675.84;4898304;29;20412;-80
2021/08/21 06:42:27;;;;;;;6.93;3.92;;;;;;;18.94;76.08;100676.25;4897383;29;20056;-80
2021/08/21 06:44:54;;;;;;;8.48;4.07;;;;;;;19.14;75.51;100675.56;4893402;29;20397;-80
2021/08/21 06:47:20;;;;;;;4.75;4.00;;;;;;;19.21;74.69;100674.09;4898073;29;20073;-79
2021/08/21 06:49:47;;;;;;;5.55;4.07;;;;;;;19.27;73.07;100665.56;4915144;29;20040;-80
2021/08/21 06:52:13;;;;;;;7.60;4.43;;;;;;;19.33;72.71;100677.66;4902164;29;20104;-79
2021/08/21 06:54:40;;;;;;;7.47;4.20;;;;;;;19.39;73.62;100662.88;4896846;29;20051;-79
2021/08/21 06:57:07;;;;;;;8.15;4.35;;;;;;;19.52;71.63;100667.19;4901333;29;20040;-80
2021/08/21 06:59:33;;;;;;;5.60;4.25;;;;;;;19.48;72.57;100662.16;4902162;29;20045;-79
2021/08/21 07:02:04;;;;;;;8.18;4.35;;;;;;;19.57;71.61;100665.00;4904958;29;20767;-80
2021/08/21 07:04:31;;;;;;;5.28;4.30;;;;;;;19.76;71.49;100676.94;4903081;29;20087;-80
2021/08/21 07:06:57;;;;;;;5.57;4.00;;;;;;;19.93;69.80;100674.59;4904403;29;20049;-80
2021/08/21 07:09:24;;;;;;;7.47;4.20;;;;;;;20.13;69.51;100669.44;4904749;29;20407;-81
2021/08/21 07:11:51;;;;;;;6.10;3.85;;;;;;;20.36;70.72;100668.41;4906938;29;20155;-80
2021/08/21 07:14:17;;;;;;;5.03;4.07;;;;;;;20.59;67.40;100674.56;4901407;29;20064;-86
2021/08/21 07:16:44;;;;;;;6.82;4.15;;;;;;;20.57;67.03;100671.13;4900670;29;20103;-86
2021/08/21 07:19:10;;;;;;;5.30;3.60;;;;;;;20.52;67.35;100670.66;4905758;29;20041;-87
2021/08/21 07:21:38;;;;;;;7.45;4.28;;;;;;;20.56;67.28;100667.59;4923327;29;20055;-86
2021/08/21 07:24:06;;;;;;;5.72;4.13;;;;;;;20.67;68.09;100670.22;4914103;29;20112;-83
2021/08/21 07:26:33;;;;;;;7.05;4.40;;;;;;;20.72;67.11;100658.22;4922942;29;20128;-85
2021/08/21 07:29:01;;;;;;;5.60;4.13;;;;;;;20.85;67.51;100664.25;4926694;29;20055;-85
2021/08/21 07:31:29;;;;;;;5.93;3.85;;;;;;;20.93;66.96;100668.03;4912449;29;20135;-85
2021/08/21 07:33:56;;;;;;;7.75;4.38;;;;;;;20.97;66.32;100668.59;4898421;29;20441;-86
2021/08/21 07:36:23;;;;;;;6.97;4.72;;;;;;;20.94;66.10;100664.31;4910535;29;20135;-85
2021/08/21 07:38:52;;;;;;;6.25;4.50;;;;;;;21.00;67.22;100663.78;4899723;29;20075;-85
2021/08/21 07:41:19;;;;;;;4.85;4.32;;;;;;;21.19;67.03;100667.59;4914652;29;20052;-85
2021/08/21 07:43:46;;;;;;;7.97;4.75;;;;;;;21.29;66.76;100671.22;4914021;29;20112;-83
2021/08/21 07:46:13;;;;;;;6.00;3.90;;;;;;;21.35;65.90;100674.25;4908494;29;20055;-84
2021/08/21 07:48:40;;;;;;;5.38;4.40;;;;;;;21.42;65.43;100661.06;4906841;29;20056;-85
2021/08/21 07:51:07;;;;;;;5.10;3.90;;;;;;;21.55;65.97;100663.56;4902404;29;20421;-85
2021/08/21 07:53:34;;;;;;;5.00;4.40;;;;;;;21.68;64.93;100672.25;4908086;29;20062;-85
2021/08/21 07:56:06;;;;;;;4.63;4.00;;;;;;;21.65;63.88;100675.22;4894481;29;20068;-86
2021/08/21 07:58:33;;;;;;;5.75;4.35;;;;;;;21.48;63.59;100674.00;4913122;29;20079;-86
2021/08/21 08:01:01;;;;;;;6.35;4.28;;;;;;;21.34;64.67;100677.06;4919051;29;20076;-86
2021/08/21 08:03:29;;;;;;;5.18;4.22;;;;;;;21.20;65.61;100678.28;4913579;29;20056;-79
2021/08/21 08:05:57;;;;;;;5.13;3.90;;;;;;;21.21;66.71;100685.38;4885588;29;20068;-80
2021/08/21 08:08:23;;;;;;;5.60;4.70;;;;;;;21.33;66.14;100686.97;4898245;29;20044;-80
2021/08/21 08:10:51;;;;;;;5.50;4.35;;;;;;;21.49;66.54;100681.09;4897364;29;20049;-78
2021/08/21 08:13:19;;;;;;;6.95;3.90;;;;;;;21.73;66.62;100683.44;4899542;29;20045;-78
2021/08/21 08:15:46;;;;;;;5.85;3.90;;;;;;;21.92;63.97;100680.81;4907396;29;20155;-78
2021/08/21 08:18:13;;;;;;;5.13;4.50;;;;;;;22.00;63.05;100685.56;4903764;29;20491;-78
2021/08/21 08:20:39;;;;;;;5.78;3.95;;;;;;;22.18;62.07;100685.75;4890830;29;20060;-79
2021/08/21 08:23:07;;;;;;;9.10;4.55;;;;;;;22.32;60.93;100688.91;4902826;29;20079;-78
2021/08/21 08:25:35;;;;;;;4.65;4.00;;;;;;;22.50;61.69;100688.22;4904594;29;20528;-78
2021/08/21 08:28:02;;;;;;;4.97;4.03;;;;;;;22.47;60.44;100672.31;4888884;29;20045;-78
2021/08/21 08:30:28;;;;;;;4.22;3.65;;;;;;;22.52;61.75;100676.25;4904537;29;20066;-78
2021/08/21 08:32:55;;;;;;;4.90;3.78;;;;;;;22.66;60.43;100675.00;4905955;29;20116;-78
2021/08/21 08:35:22;;;;;;;4.28;3.80;;;;;;;22.84;60.08;100675.13;4894198;29;20500;-78
2021/08/21 08:37:50;;;;;;;5.43;3.90;;;;;;;22.99;58.83;100677.25;4910986;29;20064;-79
2021/08/21 08:40:22;;;;;;;4.15;3.75;;;;;;;23.11;58.56;100669.00;4905587;29;20044;-80
2021/08/21 08:42:49;;;;;;;4.82;3.65;;;;;;;23.18;56.85;100668.25;4904748;29;20076;-79
2021/08/21 08:45:16;;;;;;;5.07;3.83;;;;;;;23.08;56.46;100670.13;4895360;29;20068;-79
2021/08/21 08:47:44;;;;;;;6.70;4.50;;;;;;;23.03;56.58;100662.47;4900589;29;20045;-79
2021/08/21 08:50:13;;;;;;;4.20;3.47;;;;;;;23.02;56.44;100663.47;4893653;29;20109;-79
2021/08/21 08:52:40;;;;;;;4.10;3.70;;;;;;;23.02;56.60;100671.56;4905477;29;20045;-79
2021/08/21 08:55:08;;;;;;;3.60;3.30;;;;;;;23.07;57.21;100668.44;4886871;29;20483;-79
2021/08/21 08:57:39;;;;;;;4.43;4.00;;;;;;;23.19;55.35;100669.97;4903532;29;20048;-79
2021/08/21 09:00:09;;;;;;;5.80;3.80;;;;;;;23.24;53.34;100664.97;4908455;29;20135;-79
2021/08/21 09:02:41;;;;;;;3.85;3.42;;;;;;;23.26;52.88;100665.69;4906205;29;20076;-79
2021/08/21 09:05:10;;;;;;;4.00;3.60;;;;;;;23.23;54.41;100657.00;4908776;29;20490;-79
2021/08/21 09:07:43;;;;;;;4.50;4.00;;;;;;;23.28;53.53;100661.00;4901924;29;20059;-79
2021/08/21 09:10:27;;;;;;;4.25;3.67;;;;;;;23.19;54.23;100656.44;4895617;29;20112;-79
2021/08/21 09:13:15;;;;;;;4.63;3.78;;;;;;;23.16;54.04;100664.00;4903886;29;20397;-79
2021/08/21 09:15:54;;;;;;;4.32;3.90;;;;;;;23.02;53.82;100659.91;4907341;29;20080;-79
2021/08/21 09:18:24;;;;;;;4.53;3.40;;;;;;;22.99;54.20;100665.59;4896478;29;20055;-79
2021/08/21 09:21:11;;;;;;;4.15;3.75;;;;;;;22.94;53.54;100655.25;4913155;29;20560;-79
2021/08/21 09:23:46;;;;;;;4.20;3.45;;;;;;;22.94;54.05;100657.09;4899533;29;20059;-79
2021/08/21 09:26:30;;;;;;;4.30;3.90;;;;;;;23.02;53.53;100668.84;4901252;29;20041;-78
2021/08/21 09:28:59;;;;;;;4.53;3.88;;;;;;;23.06;53.92;100667.56;4902223;29;20072;-79
2021/08/21 09:31:30;;;;;;;4.32;3.90;;;;;;;23.11;53.76;100655.50;4904443;29;20048;-78
2021/08/21 09:34:00;;;;;;;4.50;3.92;;;;;;;23.18;54.52;100660.16;4906215;29;20092;-79
2021/08/21 09:36:31;;;;;;;4.20;3.80;;;;;;;23.24;52.79;100664.13;4900231;29;20145;-79
2021/08/21 09:39:00;;;;;;;4.72;3.90;;;;;;;23.21;52.74;100667.13;4900918;29;20105;-80
2021/08/21 09:41:27;;;;;;;6.45;3.80;;;;;;;23.17;52.67;100663.84;4912558;29;20047;-80
2021/08/21 09:44:08;;;;;;;5.03;3.50;;;;;;;23.20;53.35;100655.44;4886979;29;20048;-78
2021/08/21 09:46:37;;;;;;;4.25;3.75;;;;;;;23.34;53.02;100651.41;4895436;29;20055;-80
2021/08/21 09:49:05;;;;;;;5.13;3.75;;;;;;;23.39;53.30;100652.69;4900501;29;20047;-79
2021/08/21 09:51:46;;;;;;;4.35;3.95;;;;;;;23.43;52.91;100661.38;4900450;29;20049;-79
2021/08/21 09:54:18;;;;;;;4.93;3.95;;;;;;;23.43;52.81;100655.97;4899403;29;20498;-80
2021/08/21 09:56:55;;;;;;;5.43;3.90;;;;;;;23.51;52.78;100650.69;4903095;29;20048;-80
2021/08/21 09:59:43;;;;;;;4.28;3.70;;;;;;;23.67;53.54;100641.91;4896837;29;20067;-78
2021/08/21 10:02:12;;;;;;;6.93;4.15;;;;;;;23.82;52.89;100651.22;4892905;29;20066;-79
2021/08/21 10:04:42;;;;;;;4.75;4.18;;;;;;;23.91;52.22;100649.50;4896458;29;20048;-78
2021/08/21 10:07:15;;;;;;;7.57;4.22;;;;;;;23.91;51.72;100647.63;4901279;29;20041;-78
2021/08/21 10:09:43;;;;;;;4.75;3.58;;;;;;;23.93;52.28;100640.19;4897576;29;20051;-78
2021/08/21 10:12:11;;;;;;;4.40;3.97;;;;;;;23.94;51.06;100644.59;4899416;29;20067;-79
2021/08/21 10:14:44;;;;;;;5.07;3.85;;;;;;;23.94;51.04;100632.94;4902229;29;20055;-79
2021/08/21 10:17:14;;;;;;;5.40;3.83;;;;;;;24.02;51.58;100628.47;4900324;29;20067;-79
2021/08/21 10:19:41;;;;;;;;;;;;;;;24.13;51.36;100632.81;4901809;29;20051;-78
2021/08/21 10:22:10;;;;;;;5.47;3.60;;;;;;;24.17;51.14;100627.94;4902969;29;19931;-80
2021/08/21 10:24:40;;;;;;;6.03;3.90;;;;;;;24.25;50.73;100620.78;4911665;29;20083;-81
2021/08/21 10:27:15;;;;;;;4.97;3.97;;;;;;;24.37;50.45;100621.41;4919736;29;20040;-79
2021/08/21 10:30:05;;;;;;;9.73;4.50;;;;;;;24.39;50.75;100620.25;4918507;29;20116;-79
2021/08/21 10:32:41;;;;;;;4.70;3.50;;;;;;;24.46;50.60;100618.63;4917520;29;20818;-79
2021/08/21 10:35:10;;;;;;;6.28;4.63;;;;;;;24.50;49.61;100618.31;4915351;29;20068;-80
2021/08/21 10:37:41;;;;;;;5.32;3.63;;;;;;;24.51;49.33;100623.56;4892349;29;20109;-79
2021/08/21 10:40:25;;;;;;;4.32;3.50;;;;;;;24.55;49.72;100613.28;4905701;29;20056;-80
2021/08/21 10:43:03;;;;;;;5.28;4.05;;;;;;;24.66;49.03;100607.63;4909865;29;20563;-80
2021/08/21 10:45:39;;;;;;;5.78;3.90;;;;;;;24.80;48.98;100609.75;4907709;29;20053;-79
2021/08/21 10:48:07;;;;;;;3.85;3.10;;;;;;;24.82;48.33;100611.28;4888374;29;20044;-79
2021/08/21 10:50:35;;;;;;;4.32;3.38;;;;;;;24.84;48.04;100611.13;4900781;29;20052;-79
2021/08/21 10:53:07;;;;;;;4.85;3.55;;;;;;;24.87;48.64;100609.97;4902206;29;20048;-79
2021/08/21 10:55:33;;;;;;;5.82;3.47;;;;;;;24.98;48.55;100607.88;4909019;29;20052;-79
2021/08/21 10:58:26;;;;;;;7.07;3.63;;;;;;;25.05;48.94;100603.50;4913288;29;20063;-79
2021/08/21 11:01:08;;;;;;;3.92;3.40;;;;;;;25.22;47.53;100604.44;4908711;29;20063;-79
2021/08/21 11:03:35;;;;;;;4.75;3.35;;;;;;;25.17;47.16;100604.09;4906568;29;20108;-79
2021/08/21 11:06:04;;;;;;;3.58;3.28;;;;;;;25.22;46.99;100598.19;4905167;29;20595;-79
2021/08/21 11:08:31;;;;;;;3.60;2.97;;;;;;;25.28;46.11;100598.41;4905657;29;20135;-79
2021/08/21 11:11:07;;;;;;;4.57;3.10;;;;;;;25.37;46.90;100597.41;4902198;29;20056;-79
2021/08/21 11:14:07;;;;;;;3.50;3.20;;;;;;;25.55;45.80;100589.19;4895855;29;20044;-79
2021/08/21 11:16:54;;;;;;;3.40;3.05;;;;;;;25.69;44.18;100588.59;4896338;29;20048;-79
2021/08/21 11:19:27;;;;;;;3.67;3.25;;;;;;;25.71;44.90;100589.28;4889040;29;20049;-79
2021/08/21 11:22:13;;;;;;;3.55;3.22;;;;;;;25.76;45.01;100580.66;4901112;29;20103;-80
2021/08/21 11:24:52;;;;;;;4.40;3.85;;;;;;;25.85;44.81;100585.06;4903387;29;20127;-79
2021/08/21 11:27:22;;;;;;;3.50;3.20;;;;;;;25.96;45.43;100579.34;4911374;29;20582;-79
2021/08/21 11:30:20;;;;;;;5.20;3.40;;;;;;;25.96;44.70;100573.91;4908599;29;20052;-79
2021/08/21 11:32:48;;;;;;;3.83;3.53;;;;;;;25.98;44.75;100563.72;4910752;29;20056;-79